Time;durP1;ratioP1;P1;durP2;ratioP2;P2;SDS_P1;SDS_P2;PMS_P1;PMS_P2;Temp;Humidity;BMP_temperature;BMP_pressure;BME280_temperature;BME280_humidity;BME280_pressure;Samples;Min_cycle;Max_cycle;Signal;HPM_P1;HPM_P2
2022/01/24 00:02:17;;;;;;;24.80;15.00;;;-2.10;99.90;;;;;;5111660;28;20044;-72
2022/01/24 00:04:50;;;;;;;20.95;13.13;;;-2.10;99.90;;;;;;5112312;28;20039;-72
2022/01/24 00:07:20;;;;;;;26.52;15.43;;;-2.20;99.90;;;;;;5094435;28;20054;-72
2022/01/24 00:09:47;;;;;;;26.20;14.70;;;-2.20;99.90;;;;;;5077388;28;20502;-71
2022/01/24 00:12:19;;;;;;;22.23;13.57;;;-2.20;99.90;;;;;;5077265;28;20146;-72
2022/01/24 00:26:44;;;;;;;20.75;12.70;;;-2.30;99.90;;;;;;5111574;28;20048;-72
2022/01/24 00:28:46;;;;;;;23.45;15.15;;;-2.20;99.90;;;;;;5093729;28;20422;-72
2022/01/24 00:31:18;;;;;;;22.45;13.80;;;-2.20;99.90;;;;;;5111991;28;20050;-71
2022/01/24 00:33:49;;;;;;;20.77;13.75;;;-2.20;99.90;;;;;;5093551;28;20050;-72
2022/01/24 00:36:21;;;;;;;21.42;14.75;;;-2.30;99.90;;;;;;5094510;28;20039;-71
2022/01/24 00:38:54;;;;;;;21.05;13.90;;;-2.20;99.90;;;;;;5093587;28;20040;-72
2022/01/24 00:41:26;;;;;;;20.27;13.25;;;-2.20;99.90;;;;;;5094692;28;20054;-71
2022/01/24 00:46:49;;;;;;;20.90;13.38;;;-2.20;99.90;;;;;;5112222;28;20048;-71
2022/01/24 00:54:51;;;;;;;19.45;12.38;;;-2.30;99.90;;;;;;5110939;28;20038;-71
2022/01/24 00:57:24;;;;;;;17.73;11.48;;;-2.30;99.90;;;;;;5093561;28;20047;-71
2022/01/24 00:59:50;;;;;;;15.38;11.23;;;-2.40;99.90;;;;;;5076716;28;20134;-72
2022/01/24 01:02:19;;;;;;;19.17;12.07;;;-2.40;99.90;;;;;;5111671;28;20436;-72
2022/01/24 01:18:20;;;;;;;14.38;10.77;;;-2.50;99.90;;;;;;5093449;28;20040;-71
2022/01/24 01:21:08;;;;;;;13.85;9.55;;;-2.50;99.90;;;;;;5111647;28;20046;-71
2022/01/24 01:23:44;;;;;;;16.15;10.88;;;-2.50;99.90;;;;;;5093756;28;20058;-72
2022/01/24 01:28:57;;;;;;;14.85;10.13;;;-2.50;99.90;;;;;;5093310;28;20036;-71
2022/01/24 01:31:37;;;;;;;;;;;-2.50;99.90;;;;;;5093888;28;20051;-71
2022/01/24 01:40:05;;;;;;;15.15;10.88;;;-2.50;99.90;;;;;;5093253;28;20055;-72
2022/01/24 01:56:25;;;;;;;18.10;10.90;;;-2.50;99.90;;;;;;5114872;28;20049;-72
2022/01/24 01:58:56;;;;;;;14.43;9.98;;;-2.50;99.90;;;;;;5097449;28;20035;-71
2022/01/24 02:01:28;;;;;;;13.43;9.68;;;-2.50;99.90;;;;;;5097204;28;20046;-72
2022/01/24 02:03:57;;;;;;;15.48;9.90;;;-2.50;99.90;;;;;;5095421;28;20130;-72
2022/01/24 02:06:30;;;;;;;13.43;9.57;;;-2.50;99.90;;;;;;5096027;28;20044;-72
2022/01/24 02:09:08;;;;;;;14.32;9.50;;;-2.50;99.90;;;;;;5095973;28;20067;-71
2022/01/24 02:11:40;;;;;;;13.18;8.45;;;-2.50;99.90;;;;;;5096612;28;20047;-71
2022/01/24 02:14:13;;;;;;;14.35;10.10;;;-2.50;99.90;;;;;;5095709;28;20130;-72
2022/01/24 02:19:32;;;;;;;18.15;11.55;;;-2.60;99.90;;;;;;5113723;28;20046;-72
2022/01/24 02:22:18;;;;;;;16.23;10.30;;;-2.60;99.90;;;;;;5102272;28;20137;-72
2022/01/24 02:24:57;;;;;;;15.68;11.35;;;-2.60;99.90;;;;;;5105894;28;20039;-71
2022/01/24 02:27:41;;;;;;;18.50;13.00;;;-2.60;99.90;;;;;;5097513;28;20044;-72
2022/01/24 02:30:38;;;;;;;18.80;12.95;;;-2.70;99.90;;;;;;5095809;28;20417;-72
2022/01/24 02:33:09;;;;;;;;;;;-2.70;99.90;;;;;;5095385;28;20510;-71
2022/01/24 02:35:41;;;;;;;21.17;13.20;;;-2.70;99.90;;;;;;5096124;28;19920;-72
2022/01/24 02:38:19;;;;;;;21.08;12.73;;;-2.70;99.90;;;;;;5095212;28;20134;-72
2022/01/24 02:46:00;;;;;;;19.35;13.05;;;-2.70;99.90;;;;;;5078536;28;20495;-73
2022/01/24 02:49:20;;;;;;;25.92;14.38;;;-2.60;99.90;;;;;;5113777;28;20395;-71
2022/01/24 02:51:52;;;;;;;24.50;13.75;;;-2.50;99.90;;;;;;5096532;28;20040;-72
2022/01/24 02:54:28;;;;;;;31.23;17.40;;;-2.50;99.90;;;;;;5113441;28;20032;-71
2022/01/24 02:57:02;;;;;;;26.00;15.13;;;-2.40;99.90;;;;;;5095420;28;20044;-72
2022/01/24 02:59:34;;;;;;;22.02;13.93;;;-2.30;99.90;;;;;;5113647;28;20044;-72
2022/01/24 03:02:06;;;;;;;19.20;11.55;;;-2.30;99.90;;;;;;5113628;28;20494;-72
2022/01/24 03:04:33;;;;;;;19.30;12.68;;;-2.30;99.90;;;;;;5095399;28;20119;-72
2022/01/24 03:07:00;;;;;;;19.92;12.63;;;-2.30;99.90;;;;;;5095339;28;20139;-72
2022/01/24 03:09:33;;;;;;;17.63;11.52;;;-2.30;99.90;;;;;;5096299;28;20512;-72
2022/01/24 03:12:07;;;;;;;19.40;12.15;;;-2.30;99.90;;;;;;5113309;28;20060;-72
2022/01/24 03:14:39;;;;;;;18.48;11.70;;;-2.30;99.90;;;;;;5095028;28;20505;-72
2022/01/24 03:17:06;;;;;;;16.42;11.48;;;-2.40;99.90;;;;;;5095315;28;20126;-72
2022/01/24 03:19:38;;;;;;;15.57;9.77;;;-2.40;99.90;;;;;;5094981;28;20050;-71
2022/01/24 03:22:11;;;;;;;17.10;11.15;;;-2.40;99.90;;;;;;5096045;28;20486;-71
2022/01/24 03:24:38;;;;;;;15.63;9.38;;;-2.50;99.90;;;;;;5094678;28;20043;-72
2022/01/24 03:27:10;;;;;;;14.40;9.82;;;-2.50;99.90;;;;;;5113121;28;20130;-71
2022/01/24 03:29:36;;;;;;;17.08;10.90;;;-2.50;99.90;;;;;;5094927;28;20118;-71
2022/01/24 03:32:08;;;;;;;16.55;10.35;;;-2.50;99.90;;;;;;5095558;28;20516;-72
2022/01/24 03:34:40;;;;;;;14.02;10.13;;;-2.60;99.90;;;;;;5095433;28;20126;-72
2022/01/24 03:37:12;;;;;;;17.30;10.63;;;-2.60;99.90;;;;;;5095545;28;20509;-71
2022/01/24 03:39:44;;;;;;;18.13;10.88;;;-2.60;99.90;;;;;;5094665;28;20048;-72
2022/01/24 03:42:15;;;;;;;14.05;9.55;;;-2.70;99.90;;;;;;5094631;28;20055;-72
2022/01/24 03:44:51;;;;;;;17.10;10.63;;;-2.70;99.90;;;;;;5094431;28;20044;-72
2022/01/24 03:50:17;;;;;;;17.13;10.93;;;-2.70;99.90;;;;;;5094316;28;20043;-72
2022/01/24 03:52:49;;;;;;;16.10;10.93;;;-2.70;99.90;;;;;;5094056;28;20040;-71
2022/01/24 03:55:16;;;;;;;20.98;12.93;;;-2.70;99.90;;;;;;5067787;28;20131;-71
2022/01/24 03:57:43;;;;;;;22.63;13.25;;;-2.70;99.90;;;;;;5087360;28;20494;-72
2022/01/24 04:00:15;;;;;;;18.58;11.70;;;-2.70;99.90;;;;;;5074690;28;20043;-72
2022/01/24 04:02:42;;;;;;;22.17;11.88;;;-2.70;99.90;;;;;;5093079;28;20138;-72
2022/01/24 04:05:14;;;;;;;22.33;13.55;;;-2.70;99.90;;;;;;5112004;28;20039;-72
2022/01/24 04:07:46;;;;;;;21.58;12.35;;;-2.70;99.90;;;;;;5093606;28;20048;-72
2022/01/24 04:10:17;;;;;;;21.85;12.68;;;-2.70;99.90;;;;;;5093313;28;20040;-72
2022/01/24 04:12:52;;;;;;;24.20;13.13;;;-2.70;99.90;;;;;;5088129;28;20028;-72
2022/01/24 04:18:55;;;;;;;24.83;14.60;;;-2.60;99.90;;;;;;5093325;28;20044;-72
2022/01/24 04:24:09;;;;;;;20.75;12.52;;;-2.60;99.90;;;;;;5109488;28;20053;-72
2022/01/24 04:26:41;;;;;;;31.38;17.92;;;-2.40;99.90;;;;;;5083782;28;20043;-72
2022/01/24 04:29:13;;;;;;;30.08;16.67;;;-1.80;99.90;;;;;;5093585;28;20048;-72
2022/01/24 04:31:45;;;;;;;30.45;15.77;;;-1.70;99.90;;;;;;5093873;28;20051;-71
2022/01/24 04:34:12;;;;;;;34.28;18.27;;;-1.70;99.90;;;;;;5093293;28;20047;-72
2022/01/24 04:36:43;;;;;;;26.40;14.80;;;-1.80;99.90;;;;;;5112252;28;20500;-72
2022/01/24 04:39:17;;;;;;;28.73;14.93;;;-1.90;99.90;;;;;;5094718;28;20058;-72
2022/01/24 04:41:52;;;;;;;;;;;-2.10;99.90;;;;;;5094260;28;20134;-72
2022/01/24 04:52:36;;;;;;;23.67;13.38;;;-2.40;99.90;;;;;;5092870;28;20043;-72
2022/01/24 04:55:11;;;;;;;25.58;15.07;;;-2.50;99.90;;;;;;5093131;28;20035;-72
2022/01/24 04:57:46;;;;;;;21.75;13.35;;;-2.50;99.90;;;;;;5093904;28;20040;-71
2022/01/24 05:00:14;;;;;;;23.45;13.90;;;-2.50;99.90;;;;;;5093217;28;20101;-71
2022/01/24 05:02:46;;;;;;;21.77;13.27;;;-2.60;99.90;;;;;;5111011;28;20051;-72
2022/01/24 05:05:20;;;;;;;20.92;13.93;;;-2.60;99.90;;;;;;5093267;28;20406;-72
2022/01/24 05:07:52;;;;;;;23.98;13.63;;;-2.70;99.90;;;;;;5092948;28;20048;-72
2022/01/24 05:10:33;;;;;;;21.90;13.65;;;-2.70;99.90;;;;;;5093853;28;20490;-72
2022/01/24 05:24:01;;;;;;;22.77;13.48;;;-2.80;99.90;;;;;;5120045;28;20277;-71
2022/01/24 05:26:33;;;;;;;21.88;14.30;;;-2.80;99.90;;;;;;5116744;28;20123;-72
2022/01/24 05:29:04;;;;;;;23.92;13.88;;;-2.80;99.90;;;;;;5097200;28;20059;-71
2022/01/24 05:31:31;;;;;;;22.55;13.32;;;-2.80;99.90;;;;;;5095745;28;20066;-72
2022/01/24 05:34:03;;;;;;;23.88;15.02;;;-2.80;99.90;;;;;;5078654;28;20464;-72
2022/01/24 05:36:30;;;;;;;21.80;13.65;;;-2.80;99.90;;;;;;5096146;28;20054;-72
2022/01/24 05:38:57;;;;;;;27.50;14.07;;;-2.80;99.90;;;;;;5101591;28;20613;-71
2022/01/24 05:41:29;;;;;;;22.55;13.50;;;-2.80;99.90;;;;;;5113071;28;20046;-73
2022/01/24 05:43:55;;;;;;;24.23;14.00;;;-2.90;99.90;;;;;;5111748;28;20126;-72
2022/01/24 05:46:22;;;;;;;25.38;13.82;;;-2.80;99.90;;;;;;5112299;28;20482;-71
2022/01/24 05:48:54;;;;;;;27.30;14.80;;;-2.90;99.90;;;;;;5111835;28;20040;-71
2022/01/24 05:51:22;;;;;;;24.77;13.27;;;-2.90;99.90;;;;;;5110331;28;20040;-71
2022/01/24 05:53:51;;;;;;;24.67;13.45;;;-2.90;99.90;;;;;;5109923;28;20048;-71
2022/01/24 05:56:18;;;;;;;25.52;14.13;;;-2.90;99.90;;;;;;5112253;28;20118;-71
2022/01/24 05:58:49;;;;;;;27.45;14.95;;;-2.90;99.90;;;;;;5111915;28;20065;-72
2022/01/24 06:01:16;;;;;;;29.55;16.27;;;-2.90;99.90;;;;;;5113126;28;20123;-72
2022/01/24 06:03:45;;;;;;;24.40;14.35;;;-2.90;99.90;;;;;;5111405;28;20146;-71
2022/01/24 06:06:12;;;;;;;26.77;14.60;;;-2.90;99.90;;;;;;5111956;28;20051;-71
2022/01/24 06:08:45;;;;;;;25.75;14.55;;;-2.90;99.90;;;;;;5113344;28;20131;-71
2022/01/24 06:11:12;;;;;;;29.17;13.95;;;-2.90;99.90;;;;;;5105812;28;20101;-71
2022/01/24 06:13:39;;;;;;;28.77;15.80;;;-3.00;99.90;;;;;;5111079;28;20565;-75
2022/01/24 06:16:06;;;;;;;25.35;13.93;;;-2.90;99.90;;;;;;5095546;28;20054;-71
2022/01/24 06:18:32;;;;;;;25.90;14.82;;;-2.90;99.90;;;;;;5095618;28;20040;-71
2022/01/24 06:21:04;;;;;;;26.30;13.82;;;-3.00;99.90;;;;;;5113615;28;20043;-71
2022/01/24 06:23:36;;;;;;;27.25;14.95;;;-3.00;99.90;;;;;;5094819;28;20048;-72
2022/01/24 06:26:10;;;;;;;24.13;13.48;;;-3.00;99.90;;;;;;5095284;28;20050;-71
2022/01/24 06:28:37;;;;;;;25.42;14.05;;;-3.00;99.90;;;;;;5078408;28;20135;-71
2022/01/24 06:31:09;;;;;;;23.33;13.65;;;-3.00;99.90;;;;;;5095164;28;20428;-71
2022/01/24 06:33:41;;;;;;;25.77;14.00;;;-3.00;99.90;;;;;;5112297;28;20874;-71
2022/01/24 06:36:08;;;;;;;25.40;14.10;;;-3.00;99.90;;;;;;5113280;28;20408;-71
2022/01/24 06:38:37;;;;;;;24.35;13.88;;;-3.00;99.90;;;;;;5095494;28;20039;-71
2022/01/24 06:41:09;;;;;;;26.02;15.73;;;-3.00;99.90;;;;;;5113133;28;20131;-71
2022/01/24 06:43:41;;;;;;;26.73;14.27;;;-3.10;99.90;;;;;;5094567;28;20075;-71
2022/01/24 06:46:14;;;;;;;26.38;15.02;;;-3.10;99.90;;;;;;5113113;28;20456;-71
2022/01/24 06:48:40;;;;;;;28.35;14.25;;;-3.10;99.90;;;;;;5094815;28;20553;-70
2022/01/24 06:51:12;;;;;;;24.70;14.68;;;-3.10;99.90;;;;;;5113340;28;20096;-71
2022/01/24 06:53:49;;;;;;;25.67;14.73;;;-3.10;99.90;;;;;;5094802;28;20075;-71
2022/01/24 06:56:21;;;;;;;27.98;15.57;;;-3.10;99.90;;;;;;5095240;28;20397;-71
2022/01/24 06:58:53;;;;;;;28.33;15.93;;;-3.10;99.90;;;;;;5095466;28;20529;-71
2022/01/24 07:01:19;;;;;;;24.75;15.23;;;-3.10;99.90;;;;;;5094907;28;20039;-72
2022/01/24 07:03:51;;;;;;;26.52;15.35;;;-3.10;99.90;;;;;;5113261;28;20047;-72
2022/01/24 07:06:23;;;;;;;27.45;15.05;;;-3.10;99.90;;;;;;5078862;28;20043;-71
2022/01/24 07:08:54;;;;;;;25.20;14.98;;;-3.20;99.90;;;;;;5096257;28;20397;-71
2022/01/24 07:11:26;;;;;;;25.38;14.18;;;-3.20;99.90;;;;;;5095815;28;20387;-71
2022/01/24 07:13:58;;;;;;;24.30;14.68;;;-3.20;99.90;;;;;;5078436;28;20405;-71
2022/01/24 07:16:39;;;;;;;27.35;16.13;;;-3.20;99.90;;;;;;5078747;28;20044;-72
2022/01/24 07:19:11;;;;;;;30.13;17.35;;;-3.20;99.90;;;;;;5095606;28;20035;-71
2022/01/24 07:21:38;;;;;;;26.70;15.00;;;-3.20;99.90;;;;;;5094751;28;20052;-71
2022/01/24 07:24:09;;;;;;;27.67;15.10;;;-3.20;99.90;;;;;;5094883;28;20044;-71
2022/01/24 07:26:41;;;;;;;27.35;15.07;;;-3.20;99.90;;;;;;5094694;28;20050;-72
2022/01/24 07:29:08;;;;;;;28.55;15.73;;;-3.20;99.90;;;;;;5112551;28;20050;-71
2022/01/24 07:31:40;;;;;;;25.15;14.85;;;-3.20;99.90;;;;;;5112592;28;20057;-72
2022/01/24 07:34:06;;;;;;;26.00;14.25;;;-3.20;99.90;;;;;;5094050;28;20036;-71
2022/01/24 07:36:38;;;;;;;37.38;17.70;;;-3.20;99.90;;;;;;5078483;28;20110;-71
2022/01/24 07:39:10;;;;;;;27.88;16.05;;;-3.20;99.90;;;;;;5112445;28;20039;-71
2022/01/24 07:41:46;;;;;;;28.08;16.45;;;-3.10;99.90;;;;;;5112293;28;20040;-72
2022/01/24 07:44:18;;;;;;;;;;;-3.10;99.90;;;;;;5112542;28;20044;-72
2022/01/24 07:46:45;;;;;;;27.52;15.63;;;-3.10;99.90;;;;;;5093503;28;19926;-72
2022/01/24 07:49:16;;;;;;;28.50;16.42;;;-3.10;99.90;;;;;;5094595;28;20067;-71
2022/01/24 07:51:48;;;;;;;32.22;18.15;;;-3.10;99.90;;;;;;5112462;28;20048;-71
2022/01/24 07:54:20;;;;;;;33.63;17.83;;;-3.10;99.90;;;;;;5093536;28;20143;-71
2022/01/24 07:56:47;;;;;;;28.77;17.70;;;-3.00;99.90;;;;;;5094184;28;20044;-71
2022/01/24 07:59:20;;;;;;;32.90;18.88;;;-3.10;99.90;;;;;;5093933;28;20039;-72
2022/01/24 08:01:48;;;;;;;31.40;18.25;;;-3.00;99.90;;;;;;5077099;28;20050;-71
2022/01/24 08:04:14;;;;;;;32.25;19.52;;;-3.00;99.90;;;;;;5111692;28;20043;-72
2022/01/24 08:06:41;;;;;;;34.95;20.83;;;-3.00;99.90;;;;;;5093704;28;20043;-71
2022/01/24 08:09:09;;;;;;;34.03;19.15;;;-2.90;99.90;;;;;;5112111;28;20089;-71
2022/01/24 08:11:41;;;;;;;33.58;20.08;;;-2.90;99.90;;;;;;5112045;28;20039;-71
2022/01/24 08:14:13;;;;;;;33.67;20.42;;;-2.80;99.90;;;;;;5094134;28;20039;-71
2022/01/24 08:16:41;;;;;;;33.50;20.70;;;-2.80;99.90;;;;;;5094219;28;20046;-70
2022/01/24 08:19:13;;;;;;;34.25;20.35;;;-2.80;99.90;;;;;;5077581;28;20046;-70
2022/01/24 08:21:45;;;;;;;36.88;19.80;;;-2.70;99.90;;;;;;5104548;28;20111;-70
2022/01/24 08:24:17;;;;;;;30.33;18.20;;;-2.70;99.90;;;;;;5099682;28;20524;-71
2022/01/24 08:26:44;;;;;;;33.60;18.23;;;-2.60;99.90;;;;;;5093753;28;20050;-70
2022/01/24 08:29:16;;;;;;;33.35;19.60;;;-2.50;99.90;;;;;;5093463;28;20051;-71
2022/01/24 08:31:47;;;;;;;32.53;18.75;;;-2.50;99.90;;;;;;5111656;28;20045;-71
2022/01/24 08:34:14;;;;;;;35.55;20.52;;;-2.40;99.90;;;;;;5093064;28;20508;-71
2022/01/24 08:36:47;;;;;;;37.22;20.38;;;-2.30;99.90;;;;;;5111694;28;20036;-71
2022/01/24 08:39:18;;;;;;;35.72;19.83;;;-2.30;99.90;;;;;;5093601;28;20378;-70
2022/01/24 08:47:15;;;;;;;38.05;21.85;;;-2.10;99.90;;;;;;5111599;28;20084;-71
2022/01/24 08:49:42;;;;;;;39.35;21.88;;;-2.00;99.90;;;;;;5093242;28;20051;-71
2022/01/24 08:52:14;;;;;;;41.45;24.52;;;-1.90;99.90;;;;;;5111672;28;20394;-71
2022/01/24 08:54:46;;;;;;;50.70;28.48;;;-1.90;99.90;;;;;;5111010;28;20040;-71
2022/01/24 08:57:24;;;;;;;77.90;40.47;;;-1.80;99.90;;;;;;5112728;28;20504;-72
2022/01/24 08:59:56;;;;;;;66.10;35.05;;;-1.80;99.90;;;;;;5097284;28;20040;-71
2022/01/24 09:02:23;;;;;;;57.88;33.05;;;-1.70;99.90;;;;;;5096941;28;20044;-72
2022/01/24 09:04:55;;;;;;;61.50;35.15;;;-1.60;99.90;;;;;;5097188;28;20555;-71
2022/01/24 09:07:29;;;;;;;57.78;33.58;;;-1.60;99.90;;;;;;5081057;28;20044;-71
2022/01/24 09:10:01;;;;;;;53.00;29.48;;;-1.50;99.90;;;;;;5096155;28;20068;-71
2022/01/24 09:12:33;;;;;;;50.25;28.85;;;-1.50;99.90;;;;;;5097516;28;20042;-72
2022/01/24 09:15:00;;;;;;;47.70;27.63;;;-1.40;99.90;;;;;;5095673;28;20047;-72
2022/01/24 09:17:32;;;;;;;47.17;25.58;;;-1.30;99.90;;;;;;5080276;28;20070;-71
2022/01/24 09:19:59;;;;;;;43.20;24.98;;;-1.20;99.90;;;;;;5097072;28;20043;-71
2022/01/24 09:22:34;;;;;;;39.28;22.17;;;-1.20;99.90;;;;;;5114683;28;20486;-72
2022/01/24 09:25:02;;;;;;;40.85;23.73;;;-1.10;99.90;;;;;;5114743;28;20042;-71
2022/01/24 09:27:34;;;;;;;41.67;23.92;;;-1.00;99.90;;;;;;5114813;28;20036;-71
2022/01/24 09:30:00;;;;;;;42.92;23.77;;;-0.90;99.90;;;;;;5096340;28;20047;-71
2022/01/24 09:32:32;;;;;;;41.70;24.48;;;-0.80;99.90;;;;;;5114686;28;20050;-72
2022/01/24 09:35:07;;;;;;;40.45;23.83;;;-0.60;99.90;;;;;;5080573;28;20047;-72
2022/01/24 09:37:34;;;;;;;38.75;21.50;;;-0.40;99.90;;;;;;5095248;28;20040;-71
2022/01/24 09:40:01;;;;;;;41.33;22.88;;;-0.40;99.90;;;;;;5096575;28;20134;-72
2022/01/24 09:42:33;;;;;;;35.35;21.00;;;-0.30;99.90;;;;;;5096471;28;20050;-71
2022/01/24 09:45:00;;;;;;;33.05;20.05;;;-0.30;99.90;;;;;;5080268;28;20513;-71
2022/01/24 09:47:32;;;;;;;34.92;21.67;;;-0.20;99.90;;;;;;5096876;28;20051;-72
2022/01/24 09:50:07;;;;;;;35.13;20.67;;;-0.20;99.90;;;;;;5115051;28;20046;-72
2022/01/24 09:52:40;;;;;;;34.67;19.77;;;-0.10;99.90;;;;;;5096352;28;20047;-72
2022/01/24 09:55:15;;;;;;;35.42;21.20;;;-0.10;99.90;;;;;;5096747;28;20039;-71
2022/01/24 09:57:48;;;;;;;35.72;21.83;;;0.00;99.90;;;;;;5114882;28;20522;-71
2022/01/24 10:00:22;;;;;;;41.27;21.23;;;0.10;99.90;;;;;;5096621;28;20044;-71
2022/01/24 10:02:55;;;;;;;36.30;20.38;;;0.10;99.90;;;;;;5114547;28;20375;-71
2022/01/24 10:05:37;;;;;;;39.40;21.70;;;0.20;99.90;;;;;;5096396;28;20044;-72
2022/01/24 10:08:16;;;;;;;42.78;20.90;;;0.30;99.90;;;;;;5096065;28;20423;-71
2022/01/24 10:10:51;;;;;;;38.80;21.95;;;0.40;99.90;;;;;;5096123;28;20047;-72
2022/01/24 10:16:25;;;;;;;33.15;18.83;;;0.60;99.90;;;;;;5114578;28;20049;-72
2022/01/24 10:19:04;;;;;;;36.63;18.90;;;0.70;99.90;;;;;;5080151;28;20048;-72
2022/01/24 10:21:50;;;;;;;32.00;18.88;;;0.70;99.90;;;;;;5114526;28;20048;-72
2022/01/24 10:24:48;;;;;;;32.13;17.83;;;0.80;99.90;;;;;;5095643;28;20048;-72
2022/01/24 10:27:28;;;;;;;30.92;16.15;;;1.00;99.90;;;;;;5114468;28;20061;-72
2022/01/24 10:30:10;;;;;;;28.38;16.63;;;1.00;99.90;;;;;;5096103;28;20044;-72
2022/01/24 10:32:46;;;;;;;29.80;18.23;;;1.00;99.90;;;;;;5114074;28;20468;-72
2022/01/24 10:35:35;;;;;;;28.25;16.10;;;1.10;99.90;;;;;;5114300;28;20040;-72
2022/01/24 10:38:42;;;;;;;25.42;15.55;;;1.50;99.90;;;;;;5080173;28;20039;-72
2022/01/24 10:41:19;;;;;;;25.67;14.95;;;1.50;99.90;;;;;;5096068;28;20457;-72
2022/01/24 10:43:47;;;;;;;21.35;13.60;;;1.50;99.90;;;;;;5094952;28;20518;-72
2022/01/24 10:46:24;;;;;;;24.67;14.60;;;1.50;99.90;;;;;;5095612;28;20047;-73
2022/01/24 10:49:04;;;;;;;24.00;13.35;;;1.50;99.90;;;;;;5079432;28;20043;-72
2022/01/24 10:51:39;;;;;;;24.88;13.75;;;1.50;99.90;;;;;;5113248;28;20044;-72
2022/01/24 10:54:14;;;;;;;26.90;14.02;;;1.50;99.90;;;;;;5112589;28;20043;-72
2022/01/24 10:56:46;;;;;;;22.30;13.88;;;1.50;99.90;;;;;;5095792;28;20042;-72
2022/01/24 10:59:24;;;;;;;24.65;13.35;;;1.50;99.90;;;;;;5078761;28;20054;-72
2022/01/24 11:01:58;;;;;;;22.50;13.30;;;1.50;99.90;;;;;;5112931;28;20040;-72
2022/01/24 11:04:26;;;;;;;23.25;12.70;;;1.60;99.90;;;;;;5094544;28;20050;-72
2022/01/24 11:06:56;;;;;;;22.17;13.82;;;1.60;99.90;;;;;;5094516;28;20502;-72
2022/01/24 11:09:32;;;;;;;23.23;13.45;;;1.60;99.90;;;;;;5094530;28;20086;-71
2022/01/24 11:12:11;;;;;;;22.42;13.70;;;1.60;99.90;;;;;;5112917;28;20044;-71
2022/01/24 11:14:45;;;;;;;20.73;11.85;;;1.60;99.90;;;;;;5094500;28;20054;-72
2022/01/24 11:17:24;;;;;;;;;;;1.70;99.90;;;;;;5095929;28;20049;-72
2022/01/24 11:20:01;;;;;;;20.50;11.43;;;1.70;99.90;;;;;;5102635;28;19926;-71
2022/01/24 11:22:40;;;;;;;19.05;11.52;;;1.80;99.90;;;;;;5095456;28;20039;-71
2022/01/24 11:25:14;;;;;;;18.42;11.20;;;1.90;99.90;;;;;;5116424;28;20524;-72
2022/01/24 11:27:48;;;;;;;19.95;11.65;;;2.00;99.90;;;;;;5112472;28;20051;-71
2022/01/24 11:30:22;;;;;;;22.13;12.52;;;2.00;99.90;;;;;;5112643;28;20054;-72
2022/01/24 11:33:16;;;;;;;19.45;12.40;;;2.10;99.90;;;;;;5094894;28;20050;-72
2022/01/24 11:35:51;;;;;;;19.17;12.23;;;2.20;99.90;;;;;;5112509;28;20042;-72
2022/01/24 11:38:43;;;;;;;22.27;11.85;;;2.30;99.90;;;;;;5112402;28;20054;-72
2022/01/24 11:41:37;;;;;;;20.05;12.18;;;2.40;99.90;;;;;;5093903;28;20126;-71
2022/01/24 11:44:16;;;;;;;20.67;11.95;;;2.50;99.90;;;;;;5093489;28;20052;-72
2022/01/24 11:46:52;;;;;;;16.90;10.60;;;2.50;99.90;;;;;;5094121;28;20127;-72
2022/01/24 11:49:25;;;;;;;17.98;11.32;;;2.60;99.90;;;;;;5110608;28;20043;-72
2022/01/24 11:52:14;;;;;;;17.88;11.52;;;2.60;99.90;;;;;;5091922;28;20054;-71
2022/01/24 11:57:39;;;;;;;19.08;11.00;;;2.50;99.90;;;;;;5111072;28;20126;-72
2022/01/24 12:00:06;;;;;;;20.17;11.70;;;2.40;99.90;;;;;;5091815;28;20048;-71
2022/01/24 12:02:56;;;;;;;18.08;11.48;;;2.50;99.90;;;;;;5090880;28;20048;-72
2022/01/24 12:05:23;;;;;;;18.20;11.18;;;2.60;99.90;;;;;;5108022;28;20050;-72
2022/01/24 12:07:55;;;;;;;19.10;11.40;;;2.60;99.90;;;;;;5111619;28;20077;-72
2022/01/24 12:12:59;;;;;;;19.17;11.05;;;2.80;99.90;;;;;;5110968;28;20075;-72
2022/01/24 12:15:36;;;;;;;20.98;12.20;;;2.90;99.90;;;;;;5111760;28;20046;-71
2022/01/24 12:18:04;;;;;;;23.02;13.18;;;3.00;99.90;;;;;;5093326;28;20493;-71
2022/01/24 12:20:36;;;;;;;22.30;12.10;;;3.00;99.90;;;;;;5077210;28;20401;-71
2022/01/24 12:23:16;;;;;;;20.17;12.63;;;3.10;99.90;;;;;;5109218;28;20040;-72
2022/01/24 12:26:07;;;;;;;20.13;12.35;;;3.10;99.90;;;;;;5077683;28;20379;-72
2022/01/24 12:28:42;;;;;;;20.45;11.32;;;3.20;99.90;;;;;;5093232;28;20040;-72
2022/01/24 12:31:38;;;;;;;19.75;11.32;;;3.30;99.90;;;;;;5089534;28;20051;-72
2022/01/24 12:34:12;;;;;;;19.10;11.35;;;3.30;99.90;;;;;;5068306;28;20392;-72
2022/01/24 12:36:48;;;;;;;19.40;11.05;;;3.30;99.90;;;;;;5089245;28;20380;-71
2022/01/24 12:39:20;;;;;;;21.58;12.27;;;3.40;99.90;;;;;;5073863;28;20046;-72
2022/01/24 12:41:52;;;;;;;21.33;12.45;;;3.40;99.90;;;;;;5076179;28;20126;-71
2022/01/24 12:47:12;;;;;;;20.35;11.98;;;3.60;99.90;;;;;;5093312;28;20052;-71
2022/01/24 12:49:45;;;;;;;21.67;12.98;;;3.60;99.90;;;;;;5093985;28;20520;-71
2022/01/24 12:52:25;;;;;;;25.55;13.60;;;3.80;99.90;;;;;;5087103;28;20044;-72
2022/01/24 12:54:56;;;;;;;21.85;12.50;;;3.80;99.90;;;;;;5072498;28;20048;-72
2022/01/24 12:57:37;;;;;;;20.58;12.43;;;3.90;99.90;;;;;;5071102;28;20560;-72
2022/01/24 13:00:15;;;;;;;22.77;14.13;;;3.90;99.90;;;;;;5088555;28;20116;-72
2022/01/24 13:02:47;;;;;;;23.50;13.45;;;3.90;99.90;;;;;;5073259;28;20040;-72
2022/01/24 13:05:15;;;;;;;24.30;13.70;;;3.90;99.90;;;;;;5091026;28;20062;-72
2022/01/24 13:07:49;;;;;;;22.63;13.88;;;4.00;99.90;;;;;;5072821;28;20044;-72
2022/01/24 13:10:27;;;;;;;20.88;12.35;;;4.00;99.90;;;;;;5056935;28;20044;-72
2022/01/24 13:13:10;;;;;;;24.42;13.68;;;3.90;99.90;;;;;;5072402;28;20044;-71
2022/01/24 13:21:24;;;;;;;23.20;14.40;;;3.80;99.90;;;;;;5090523;28;20487;-71
2022/01/24 13:24:00;;;;;;;25.10;14.20;;;3.70;99.90;;;;;;5090425;28;20040;-71
2022/01/24 13:26:32;;;;;;;26.33;14.10;;;3.70;99.90;;;;;;5091029;28;20498;-71
2022/01/24 13:29:05;;;;;;;24.88;13.80;;;3.60;99.90;;;;;;5073458;28;20494;-71
2022/01/24 13:31:32;;;;;;;23.33;13.43;;;3.60;99.90;;;;;;5073006;28;20044;-71
2022/01/24 13:34:10;;;;;;;23.35;14.05;;;3.60;99.90;;;;;;5071994;28;20418;-71
2022/01/24 13:36:42;;;;;;;27.15;14.75;;;3.70;99.90;;;;;;5096835;28;20053;-71
2022/01/24 13:39:14;;;;;;;25.60;14.70;;;3.70;99.90;;;;;;5091264;28;20497;-71
2022/01/24 13:41:46;;;;;;;22.48;13.48;;;3.90;99.90;;;;;;5110979;28;20058;-71
2022/01/24 13:44:18;;;;;;;26.40;14.57;;;4.00;99.90;;;;;;5081343;28;20077;-71
2022/01/24 13:46:50;;;;;;;28.25;15.32;;;4.00;99.90;;;;;;5075600;28;20050;-71
2022/01/24 13:49:22;;;;;;;33.35;17.60;;;3.90;99.90;;;;;;5076684;28;20040;-71
2022/01/24 13:51:54;;;;;;;34.40;17.88;;;3.80;99.90;;;;;;5086467;28;20039;-73
2022/01/24 13:54:29;;;;;;;38.67;21.45;;;3.70;99.90;;;;;;5059203;28;20089;-73
2022/01/24 13:57:05;;;;;;;26.63;15.70;;;3.60;99.90;;;;;;5075521;28;20112;-73
2022/01/24 13:59:37;;;;;;;26.15;14.57;;;3.60;99.90;;;;;;5086088;28;20039;-73
2022/01/24 14:02:11;;;;;;;25.85;14.65;;;3.50;99.90;;;;;;5113594;28;20047;-73
2022/01/24 14:04:41;;;;;;;26.83;14.82;;;3.50;99.90;;;;;;5102321;28;20538;-73
2022/01/24 14:07:31;;;;;;;23.77;13.30;;;3.30;99.90;;;;;;5092435;28;20555;-73
2022/01/24 14:10:04;;;;;;;25.45;14.05;;;3.30;99.90;;;;;;5093636;28;20465;-74
2022/01/24 14:12:47;;;;;;;23.85;14.00;;;3.20;99.90;;;;;;5075630;28;20411;-73
2022/01/24 14:15:56;;;;;;;22.33;12.10;;;3.10;99.90;;;;;;5093398;28;20054;-73
2022/01/24 14:21:11;;;;;;;26.30;15.25;;;3.20;99.90;;;;;;5073794;28;20067;-74
2022/01/24 14:23:50;;;;;;;;;;;3.10;99.90;;;;;;5075625;28;20044;-73
2022/01/24 14:26:25;;;;;;;28.58;15.75;;;3.10;99.90;;;;;;5075491;28;19993;-73
2022/01/24 14:29:08;;;;;;;28.88;16.38;;;3.10;99.90;;;;;;5059348;28;20046;-74
2022/01/24 14:31:44;;;;;;;27.95;15.73;;;3.10;99.90;;;;;;5076489;28;20389;-74
2022/01/24 14:34:16;;;;;;;24.27;13.80;;;3.00;99.90;;;;;;5074862;28;20052;-74
2022/01/24 14:36:55;;;;;;;24.42;13.90;;;2.80;99.90;;;;;;5093817;28;20043;-73
2022/01/24 14:39:27;;;;;;;25.05;13.73;;;2.70;99.90;;;;;;5075631;28;20078;-74
2022/01/24 14:41:54;;;;;;;25.25;14.10;;;2.60;99.90;;;;;;5075962;28;20118;-73
2022/01/24 14:47:17;;;;;;;27.15;14.88;;;2.50;99.90;;;;;;5075499;28;20047;-74
2022/01/24 14:49:49;;;;;;;27.05;14.70;;;2.40;99.90;;;;;;5093465;28;20119;-73
2022/01/24 14:52:25;;;;;;;24.80;14.20;;;2.30;99.90;;;;;;5075283;28;20059;-73
2022/01/24 14:54:56;;;;;;;27.10;15.05;;;2.30;99.90;;;;;;5074948;28;20036;-73
2022/01/24 14:57:23;;;;;;;28.95;14.93;;;2.30;99.90;;;;;;5093286;28;20040;-73
2022/01/24 14:59:50;;;;;;;29.05;15.20;;;2.30;99.90;;;;;;5075433;28;20062;-73
2022/01/24 15:02:22;;;;;;;25.52;13.52;;;2.30;99.90;;;;;;5059238;28;20050;-74
2022/01/24 15:04:54;;;;;;;23.77;13.05;;;2.30;99.90;;;;;;5074981;28;20043;-73